Captain Karam — 3EEV9 — position and weather

sailwx.info

Track history (hours):
 
Tides and Currents Weather Stations Pressure Air Temp Water Temp Dewpoint Dewpoint Depression Visibility Wind Speed Wind Dir Waves Ship Positions

Captain Karam

Last reported at 2018-Jun-17 15:14 UTC. Time now 2018-Jun-19 22:17 UTC.
Position N 32°01' E 120°24'.

Length 190 m; draft 7 m.

Type: Cargo ship. MMSI: 371826000.

Date/timePositionNaut miles runAvg speedWind from/ knotsBaromVisibWave heightAir tempDewpointWater temp
2018-Jun-17 15:14N 32°01' E 120°24'2 8.2
2018-Jun-17 15:00N 32°02' E 120°26'4 7.2
2018-Jun-17 14:30N 32°02' E 120°30'73 9.8
2018-Jun-17 07:01N 31°20' E 121°41'411.3
2018-Jun-17 06:42N 31°18' E 121°44'210.2
2018-Jun-17 06:30N 31°16' E 121°45'714.0
2018-Jun-17 06:00N 31°11' E 121°51'714.7
2018-Jun-17 05:31N 31°07' E 121°57'510.6
2018-Jun-17 05:00N 31°05' E 122°03'612.1
2018-Jun-17 04:30N 31°03' E 122°10'510.3
2018-Jun-17 04:00N 31°03' E 122°16'5 9.3
2018-Jun-17 03:30N 31°02' E 122°21'4 8.4
2018-Jun-17 03:00N 31°01' E 122°26'4 7.1
2018-Jun-17 02:25N 31°00' E 122°31'5 9.9
2018-Jun-17 01:53N 31°00' E 122°37'  
2018-Jun-14 18:29N 31°12' E 122°43'0 0.0
2018-Jun-13 21:02N 31°12' E 122°44'0 0.0
2018-Jun-13 20:53N 31°12' E 122°44'0 0.1
2018-Jun-13 20:29N 31°12' E 122°44'0 0.0
2018-Jun-13 06:38N 31°12' E 122°44'0 0.0
2018-Jun-13 06:23N 31°12' E 122°44'0 0.1
2018-Jun-13 05:56N 31°12' E 122°44'0 0.1
2018-Jun-13 04:29N 31°12' E 122°43'0 0.2
2018-Jun-13 03:56N 31°12' E 122°43'0 0.1
2018-Jun-13 02:05N 31°12' E 122°43'0 0.0
2018-Jun-13 01:56N 31°12' E 122°43'0 0.0
2018-Jun-13 01:29N 31°12' E 122°43'0 0.0
2018-Jun-13 00:59N 31°12' E 122°43'0 0.1
2018-Jun-13 00:20N 31°12' E 122°43'0 0.0
2018-Jun-12 23:50N 31°12' E 122°43'0 0.0
2018-Jun-12 23:17N 31°12' E 122°43'0 0.2
2018-Jun-12 22:59N 31°12' E 122°43'0 0.3
2018-Jun-12 22:29N 31°12' E 122°43'0 0.1
2018-Jun-12 20:56N 31°12' E 122°44'0 0.1
2018-Jun-12 20:08N 31°12' E 122°43'0 0.0
2018-Jun-12 19:56N 31°12' E 122°43'0 0.1
2018-Jun-12 19:14N 31°12' E 122°44'0 0.0
2018-Jun-12 18:56N 31°12' E 122°44'0 0.0
2018-Jun-12 18:20N 31°12' E 122°44'0 0.1
2018-Jun-12 17:56N 31°12' E 122°43'0 0.1
2018-Jun-12 17:29N 31°12' E 122°43'0 0.1
2018-Jun-12 16:32N 31°12' E 122°43'0 0.0
2018-Jun-12 16:29N 31°12' E 122°43'0 0.1
2018-Jun-12 15:56N 31°12' E 122°43'0 0.1
2018-Jun-12 15:14N 31°12' E 122°43'0 0.0
2018-Jun-12 14:50N 31°12' E 122°43'0 0.1
2018-Jun-12 14:20N 31°12' E 122°43'0 0.0
2018-Jun-12 10:47N 31°12' E 122°43'0 0.1
2018-Jun-12 10:26N 31°12' E 122°43'0 0.2
2018-Jun-12 09:59N 31°12' E 122°43'0 0.2
2018-Jun-12 09:29N 31°12' E 122°43'0 0.1
2018-Jun-12 08:59N 31°12' E 122°43'0 0.1
2018-Jun-12 08:29N 31°12' E 122°43'0 0.0
2018-Jun-12 07:59N 31°12' E 122°43'0 0.0
2018-Jun-12 07:23N 31°12' E 122°43'0 0.0
2018-Jun-12 06:59N 31°12' E 122°43'0 0.1
2018-Jun-12 06:23N 31°12' E 122°43'0 0.1
2018-Jun-12 04:56N 31°12' E 122°43'0 0.1
2018-Jun-12 04:29N 31°12' E 122°43'0 0.1
2018-Jun-12 03:59N 31°12' E 122°43'0 0.1
2018-Jun-12 01:14N 31°12' E 122°43'0 0.0
2018-Jun-12 00:59N 31°12' E 122°43'0 0.1
2018-Jun-12 00:29N 31°12' E 122°43'0 0.0
2018-Jun-11 23:59N 31°12' E 122°43'0 0.0
2018-Jun-11 23:17N 31°12' E 122°43'0 0.0
2018-Jun-11 22:59N 31°12' E 122°43'0 0.0
2018-Jun-11 22:29N 31°12' E 122°43'0 0.0
2018-Jun-11 20:56N 31°12' E 122°43'0 0.1
2018-Jun-11 18:56N 31°12' E 122°43'0 0.0
2018-Jun-11 18:29N 31°12' E 122°43'  
Track history (hours):
 
Tides and Currents Weather Stations Pressure Air Temp Water Temp Dewpoint Dewpoint Depression Visibility Wind Speed Wind Dir Waves Ship Positions

Captain Karam

Last reported at 2018-Jun-17 15:14 UTC. Time now 2018-Jun-19 22:17 UTC.
Position N 32°01' E 120°24'.

Length 190 m; draft 7 m.

Type: Cargo ship. MMSI: 371826000.

Date/timePositionNaut miles runAvg speedWind from/ knotsBaromVisibWave heightAir tempDewpointWater temp
2018-Jun-17 15:14N 32°01' E 120°24'2 8.2
2018-Jun-17 15:00N 32°02' E 120°26'4 7.2
2018-Jun-17 14:30N 32°02' E 120°30'73 9.8
2018-Jun-17 07:01N 31°20' E 121°41'411.3
2018-Jun-17 06:42N 31°18' E 121°44'210.2
2018-Jun-17 06:30N 31°16' E 121°45'714.0
2018-Jun-17 06:00N 31°11' E 121°51'714.7
2018-Jun-17 05:31N 31°07' E 121°57'510.6
2018-Jun-17 05:00N 31°05' E 122°03'612.1
2018-Jun-17 04:30N 31°03' E 122°10'510.3
2018-Jun-17 04:00N 31°03' E 122°16'5 9.3
2018-Jun-17 03:30N 31°02' E 122°21'4 8.4
2018-Jun-17 03:00N 31°01' E 122°26'4 7.1
2018-Jun-17 02:25N 31°00' E 122°31'5 9.9
2018-Jun-17 01:53N 31°00' E 122°37'  
2018-Jun-14 18:29N 31°12' E 122°43'0 0.0
2018-Jun-13 21:02N 31°12' E 122°44'0 0.0
2018-Jun-13 20:53N 31°12' E 122°44'0 0.1
2018-Jun-13 20:29N 31°12' E 122°44'0 0.0
2018-Jun-13 06:38N 31°12' E 122°44'0 0.0
2018-Jun-13 06:23N 31°12' E 122°44'0 0.1
2018-Jun-13 05:56N 31°12' E 122°44'0 0.1
2018-Jun-13 04:29N 31°12' E 122°43'0 0.2
2018-Jun-13 03:56N 31°12' E 122°43'0 0.1
2018-Jun-13 02:05N 31°12' E 122°43'0 0.0
2018-Jun-13 01:56N 31°12' E 122°43'0 0.0
2018-Jun-13 01:29N 31°12' E 122°43'0 0.0
2018-Jun-13 00:59N 31°12' E 122°43'0 0.1
2018-Jun-13 00:20N 31°12' E 122°43'0 0.0
2018-Jun-12 23:50N 31°12' E 122°43'0 0.0
2018-Jun-12 23:17N 31°12' E 122°43'0 0.2
2018-Jun-12 22:59N 31°12' E 122°43'0 0.3
2018-Jun-12 22:29N 31°12' E 122°43'0 0.1
2018-Jun-12 20:56N 31°12' E 122°44'0 0.1
2018-Jun-12 20:08N 31°12' E 122°43'0 0.0
2018-Jun-12 19:56N 31°12' E 122°43'0 0.1
2018-Jun-12 19:14N 31°12' E 122°44'0 0.0
2018-Jun-12 18:56N 31°12' E 122°44'0 0.0
2018-Jun-12 18:20N 31°12' E 122°44'0 0.1
2018-Jun-12 17:56N 31°12' E 122°43'0 0.1
2018-Jun-12 17:29N 31°12' E 122°43'0 0.1
2018-Jun-12 16:32N 31°12' E 122°43'0 0.0
2018-Jun-12 16:29N 31°12' E 122°43'0 0.1
2018-Jun-12 15:56N 31°12' E 122°43'0 0.1
2018-Jun-12 15:14N 31°12' E 122°43'0 0.0
2018-Jun-12 14:50N 31°12' E 122°43'0 0.1
2018-Jun-12 14:20N 31°12' E 122°43'0 0.0
2018-Jun-12 10:47N 31°12' E 122°43'0 0.1
2018-Jun-12 10:26N 31°12' E 122°43'0 0.2
2018-Jun-12 09:59N 31°12' E 122°43'0 0.2
2018-Jun-12 09:29N 31°12' E 122°43'0 0.1
2018-Jun-12 08:59N 31°12' E 122°43'0 0.1
2018-Jun-12 08:29N 31°12' E 122°43'0 0.0
2018-Jun-12 07:59N 31°12' E 122°43'0 0.0
2018-Jun-12 07:23N 31°12' E 122°43'0 0.0
2018-Jun-12 06:59N 31°12' E 122°43'0 0.1
2018-Jun-12 06:23N 31°12' E 122°43'0 0.1
2018-Jun-12 04:56N 31°12' E 122°43'0 0.1
2018-Jun-12 04:29N 31°12' E 122°43'0 0.1
2018-Jun-12 03:59N 31°12' E 122°43'0 0.1
2018-Jun-12 01:14N 31°12' E 122°43'0 0.0
2018-Jun-12 00:59N 31°12' E 122°43'0 0.1
2018-Jun-12 00:29N 31°12' E 122°43'0 0.0
2018-Jun-11 23:59N 31°12' E 122°43'0 0.0
2018-Jun-11 23:17N 31°12' E 122°43'0 0.0
2018-Jun-11 22:59N 31°12' E 122°43'0 0.0
2018-Jun-11 22:29N 31°12' E 122°43'0 0.0
2018-Jun-11 20:56N 31°12' E 122°43'0 0.1
2018-Jun-11 18:56N 31°12' E 122°43'0 0.0
2018-Jun-11 18:29N 31°12' E 122°43'  

Dump ship's entire track history